Flight Track Log - Related Links

Times and Time Zones

All times are in EDT time to prevent confusion due to time zone crossing. See the ASQ5041 flight status page for this flight to view local times or setup timezone preferences in your user account.

Time Position Orientation Groundspeed Altitude Reporting Facility
EDT Latitude Longitude Course Direction KTS MPH feet Rate Location/Type
Fri 02:52:32 PM 39.2333 -94.7167 180° South 168 193 3,300  Level Kansas City TRACON
Fri 02:53:13 PM 39.2064 -94.7150 177° South 202 232 4,300 2,176 Climbing Kansas City Center
Fri 02:54:14 PM 39.2144 -94.6344 83° East 264 304 7,000 2,661 Climbing Kansas City Center
Fri 02:55:17 PM 39.2839 -94.5647 38° Northeast 289 333 9,800 2,592 Climbing Kansas City Center
Fri 02:56:19 PM 39.3511 -94.5042 35° Northeast 309 356 12,400 2,304 Climbing Kansas City Center
Fri 02:57:00 PM 39.7554 -94.1279 38° Northeast  Level FlightAware Approximate
Fri 02:57:22 PM 39.4328 -94.4322 34° Northeast 318 366 14,600  Level Kansas City Center
Fri 02:58:23 PM 39.5081 -94.3661 34° Northeast 338 389 16,600 1,645 Climbing Kansas City Center
Fri 02:59:26 PM 39.5961 -94.2853 35° Northeast 349 402 18,000 1,210 Climbing Kansas City Center
Fri 03:00:27 PM 39.6786 -94.2064 36° Northeast 386 444 19,100 1,328 Climbing Kansas City Center
Fri 03:01:28 PM 39.7369 -94.0553 63° Northeast 423 487 20,700 1,536 Climbing Kansas City Center
Fri 03:02:32 PM 39.7850 -93.9200 65° Northeast 431 496 22,300 1,355 Climbing Kansas City Center
Fri 03:03:32 PM 39.8347 -93.7669 67° East 449 517 23,500 1,056 Climbing Kansas City Center
Fri 03:04:37 PM 39.8872 -93.6161 66° East 459 528 24,500 1,200 Climbing Kansas City Center
Fri 03:05:37 PM 39.9422 -93.4628 65° Northeast 470 541 26,000 1,587 Climbing Kansas City Center
Fri 03:06:38 PM 40.0031 -93.2789 67° East 466 536 27,700 1,296 Climbing Kansas City Center
Fri 03:07:42 PM 40.0556 -93.1233 66° East 474 545 28,700 968 Climbing Kansas City Center
Fri 03:08:42 PM 40.1125 -92.9603 65° Northeast 477 549 29,700 968 Climbing Kansas City Center
Fri 03:09:46 PM 40.1633 -92.8056 67° East 481 554 30,700 1,016 Climbing Kansas City Center
Fri 03:10:46 PM 40.2231 -92.6242 67° East 486 559 31,800 1,016 Climbing Kansas City Center
Fri 03:11:50 PM 40.2750 -92.4689 66° East 486 559 32,800 816 Climbing Kansas City Center
Fri 03:12:51 PM 40.3322 -92.2994 66° East 498 573 33,500 672 Climbing Kansas City Center
Fri 03:13:55 PM 40.3864 -92.1331 67° East 502 578 34,200 720 Climbing Kansas City Center
Fri 03:14:56 PM 40.4519 -91.9319 67° East 503 579 35,000 744 Climbing Kansas City Center
Fri 03:15:56 PM 40.5058 -91.7644 67° East 503 579 35,700 677 Climbing Kansas City Center
Fri 03:17:00 PM 40.5600 -91.5969 67° East 502 578 36,400 741 Climbing Kansas City Center
Fri 03:17:17 PM 40.5811 -91.5303 67° East 500 575 36,700 456 Climbing Chicago Center
Fri 03:18:19 PM 40.6353 -91.3619 67° East 502 578 37,000 145 Climbing Chicago Center
Fri 03:19:21 PM 40.6867 -91.1983 67° East 508 585 37,000  Level Chicago Center
Fri 03:20:23 PM 40.7425 -91.0186 68° East 525 604 37,000  Level Chicago Center
Fri 03:22:11 PM 40.8453 -90.6947 67° East 530 610 37,000  Level Kansas City Center
Fri 03:22:27 PM 40.8669 -90.6231 68° East 529 609 37,000  Level Chicago Center
Fri 03:23:29 PM 40.9217 -90.4447 68° East 523 602 37,000  Level Chicago Center
Fri 03:24:31 PM 40.9778 -90.2619 68° East 530 610 37,000  Level Chicago Center
Fri 03:25:33 PM 41.0331 -90.0786 68° East 531 611 37,000  Level Chicago Center
Fri 03:26:35 PM 41.0881 -89.8947 68° East 532 612 37,000  Level Chicago Center
Fri 03:27:37 PM 41.1433 -89.7117 68° East 531 611 37,000  Level Chicago Center
Fri 03:28:40 PM 41.1964 -89.5331 68° East 520 598 37,000  Level Chicago Center
Fri 03:29:42 PM 41.2503 -89.3525 68° East 521 600 37,000  Level Chicago Center
Fri 03:30:44 PM 41.3089 -89.1431 70° East 517 595 37,000  Level Chicago Center
Fri 03:31:46 PM 41.3608 -88.9678 68° East 510 587 37,000  Level Chicago Center
Fri 03:32:48 PM 41.4114 -88.7925 69° East 509 586 37,000  Level Chicago Center
Fri 03:33:50 PM 41.4628 -88.6144 69° East 513 590 37,000  Level Chicago Center
Fri 03:34:52 PM 41.5231 -88.4022 69° East 509 586 37,000 -194 Level Chicago Center
Fri 03:35:54 PM 41.5578 -88.2169 76° East 517 595 36,600 -581 Descending Chicago Center
Fri 03:36:56 PM 41.5814 -88.0239 81° East 514 592 35,800 -774 Descending Chicago Center
Fri 03:37:58 PM 41.6036 -87.8303 81° East 519 597 35,000 -774 Descending Chicago Center
Fri 03:39:00 PM 41.6261 -87.6375 81° East 524 603 34,200 -768 Descending Chicago Center
Fri 03:40:03 PM 41.6469 -87.4478 82° East 517 595 33,400 -576 Descending Chicago Center
Fri 03:41:05 PM 41.6694 -87.2569 81° East 520 598 33,000 -194 Descending Chicago Center
Fri 03:42:07 PM 41.6939 -87.0306 82° East 514 592 33,000 -97 Level Chicago Center
Fri 03:43:09 PM 41.7128 -86.8436 82° East 509 586 32,800 -532 Descending Chicago Center
Fri 03:44:11 PM 41.7236 -86.6750 85° East 512 589 31,900 -1,016 Descending Chicago Center
Fri 03:45:13 PM 41.7342 -86.4431 86° East 520 598 30,700 -1,065 Descending Chicago Center
Fri 03:46:15 PM 41.7431 -86.2511 86° East 519 597 29,700 -968 Descending Chicago Center
Fri 03:47:17 PM 41.7528 -86.0603 86° East 515 593 28,700 -1,161 Descending Chicago Center
Fri 03:48:19 PM 41.7761 -85.8817 80° East 489 563 27,300 -1,452 Descending Chicago Center
Fri 03:49:21 PM 41.8194 -85.7156 71° East 470 541 25,700 -1,500 Descending Chicago Center
Fri 03:50:23 PM 41.8608 -85.5603 70° East 439 505 24,200 -1,210 Descending Chicago Center
Fri 03:51:25 PM 41.9217 -85.4442 55° Northeast 386 444 23,200 -1,104 Descending Chicago Center
Fri 03:52:28 PM 42.0050 -85.3219 47° Northeast 369 425 21,900 -1,096 Descending Chicago Center
Fri 03:53:09 PM 42.0439 -85.2617 49° Northeast 365 420 21,300 -1,010 Descending Cleveland Center
Fri 03:54:09 PM 42.0658 -85.1317 77° East 351 404 20,200 -1,100 Descending Cleveland Center
Fri 03:55:09 PM 42.0322 -84.9783 106° East 359 413 19,100 -600 Descending Cleveland Center
Fri 03:56:09 PM 41.9950 -84.8025 106° East 399 459 19,000 -50 Descending Cleveland Center
Fri 03:57:09 PM 41.9611 -84.6408 106° East 430 495 19,000 -100 Level Cleveland Center
Fri 03:58:09 PM 41.9250 -84.4822 107° East 446 513 18,800 -1,100 Descending Cleveland Center
Fri 03:59:09 PM 41.8906 -84.3267 107° East 440 506 16,800 -2,100 Descending Cleveland Center
Fri 04:00:09 PM 41.8572 -84.1964 109° East 428 493 14,600 -2,582 Descending Cleveland Center
Fri 04:00:28 PM 41.8464 -84.1428 105° East 393 452 13,400 -2,400 Descending Cleveland Center
Fri 04:01:09 PM 41.8322 -84.0586 103° East 404 465 12,200 -1,235 Descending Cleveland Center
Fri 04:01:36 PM 41.8594 -83.9875 63° Northeast 387 445 12,000 -200 Descending Cleveland Center
Fri 04:02:09 PM 41.8794 -83.9383 61° Northeast 352 405 12,000  Level Cleveland Center
Fri 04:02:31 PM 41.9167 -83.8844 47° Northeast 379 436 12,000  Level Cleveland Center
Fri 04:03:09 PM 41.9561 -83.8111 54° Northeast 379 436 12,000  Level Cleveland Center
Fri 04:03:38 PM 41.9928 -83.7739 37° Northeast 370 426 12,000  Level Cleveland Center
Fri 04:04:09 PM 42.0358 -83.7256 40° Northeast 368 423 12,000  Level Cleveland Center
Fri 04:04:33 PM 42.0678 -83.6964 34° Northeast 370 426 12,000 -400 Level Cleveland Center
Fri 04:05:09 PM 42.1153 -83.6400 41° Northeast 363 418 11,600 -774 Descending Cleveland Center
Fri 04:05:35 PM 42.1517 -83.6053 35° Northeast 369 425 11,200 -600 Descending Cleveland Center
Fri 04:06:09 PM 42.1819 -83.5619 47° Northeast 363 418 11,000 -269 Descending Cleveland Center
Fri 04:06:42 PM 42.2289 -83.5136 37° Northeast 285 328 10,900 -300 Descending Cleveland Center
Fri 04:07:09 PM 42.2461 -83.4947 39° Northeast 313 360 10,700 -1,222 Descending Cleveland Center
Fri 04:07:36 PM 42.2822 -83.4711 26° Northeast 224 258 9,800 -2,100 Descending Cleveland Center
Fri 04:08:09 PM 42.3119 -83.4500 28° Northeast 252 290 8,600 -2,226 Descending Cleveland Center
Fri 04:08:38 PM 42.3433 -83.4403 13° North 233 268 7,500 -1,600 Descending Cleveland Center
Fri 04:09:09 PM 42.3689 -83.4244 25° Northeast 231 266 7,000 -448 Descending Cleveland Center
Fri 04:09:45 PM 42.4067 -83.4094 16° North 225 259 7,000 -990 Level Cleveland Center
Fri 04:10:46 PM 42.4678 -83.3783 21° North 218 251 5,400 -1,463 Descending Cleveland Center
Fri 04:11:48 PM 42.4800 -83.3056 77° East 228 262 4,000 -683 Descending Cleveland Center
Fri 04:12:49 PM 42.4417 -83.2561 136° Southeast 181 208 4,000  Level Cleveland Center
Fri 04:13:50 PM 42.3917 -83.2542 178° South 180 207 4,000 -197 Level Cleveland Center
Fri 04:14:51 PM 42.3453 -83.2775 200° South 176 203 3,600 -738 Descending Cleveland Center
Fri 04:15:52 PM 42.3028 -83.3119 211° Southwest 175 201 2,500 -1,082 Descending Cleveland Center

Login

Don't have an account? Register now (free) for customized features, flight alerts, and more!